Time;durP1;ratioP1;P1;durP2;ratioP2;P2;SDS_P1;SDS_P2;PMS_P1;PMS_P2;Temp;Humidity;BMP_temperature;BMP_pressure;BME280_temperature;BME280_humidity;BME280_pressure;Samples;Min_cycle;Max_cycle;Signal;HPM_P1;HPM_P2
2020/12/18 00:00:24;;;;;;;21.23;8.17;;;;;;;;;;10436202;27;20207;-72
2020/12/18 00:05:26;;;;;;;27.10;10.20;;;;;;;;;;10433359;27;20653;-72
2020/12/18 00:10:28;;;;;;;23.57;8.70;;;;;;;;;;10429303;27;20670;-71
2020/12/18 00:15:31;;;;;;;22.00;9.17;;;;;;;;;;10434744;27;20225;-72
2020/12/18 00:20:33;;;;;;;23.90;9.50;;;;;;;;;;10435562;27;20574;-72
2020/12/18 00:25:34;;;;;;;29.47;10.37;;;;;;;;;;10448686;27;20235;-72
2020/12/18 00:30:37;;;;;;;28.70;10.60;;;;;;;;;;10441263;27;20677;-72
2020/12/18 00:35:39;;;;;;;30.00;11.13;;;;;;;;;;10429002;27;20233;-72
2020/12/18 00:40:41;;;;;;;26.10;10.33;;;;;;;;;;10443976;27;20708;-71
2020/12/18 00:45:44;;;;;;;20.37;9.57;;;;;;;;;;10438147;27;20243;-72
2020/12/18 00:50:46;;;;;;;34.93;10.63;;;;;;;;;;10437913;27;20214;-72
2020/12/18 00:55:48;;;;;;;22.00;9.80;;;;;;;;;;10440715;27;20219;-72
2020/12/18 01:00:51;;;;;;;23.10;10.90;;;;;;;;;;10434329;27;20211;-72
2020/12/18 01:05:53;;;;;;;27.50;11.63;;;;;;;;;;10432415;27;20242;-72
2020/12/18 01:10:54;;;;;;;23.33;10.27;;;;;;;;;;10430198;27;20223;-72
2020/12/18 01:15:57;;;;;;;24.33;10.67;;;;;;;;;;10440345;27;20211;-72
2020/12/18 01:20:59;;;;;;;30.07;11.37;;;;;;;;;;10431089;27;20211;-72
2020/12/18 01:26:01;;;;;;;28.53;10.73;;;;;;;;;;10424407;27;20254;-71
2020/12/18 01:31:04;;;;;;;20.10;9.87;;;;;;;;;;10437930;28;20216;-71
2020/12/18 01:36:08;;;;;;;31.47;10.87;;;;;;;;;;10448024;27;20222;-72
2020/12/18 01:41:10;;;;;;;26.20;11.37;;;;;;;;;;10436204;27;20231;-72
2020/12/18 01:46:13;;;;;;;26.63;9.63;;;;;;;;;;10439521;27;20246;-72
2020/12/18 01:51:15;;;;;;;25.40;9.63;;;;;;;;;;10442648;27;20208;-72
2020/12/18 01:56:18;;;;;;;25.37;9.60;;;;;;;;;;10446494;27;20291;-72
2020/12/18 02:01:21;;;;;;;30.47;10.80;;;;;;;;;;10437731;27;20219;-72
2020/12/18 02:06:25;;;;;;;27.07;9.53;;;;;;;;;;10444935;27;20234;-71
2020/12/18 02:11:27;;;;;;;23.80;10.20;;;;;;;;;;10434555;27;20231;-71
2020/12/18 02:16:31;;;;;;;19.60;9.90;;;;;;;;;;10450752;27;20669;-72
2020/12/18 02:21:34;;;;;;;27.50;9.83;;;;;;;;;;10439380;27;20218;-72
2020/12/18 02:26:37;;;;;;;22.20;9.63;;;;;;;;;;10442263;27;20239;-72
2020/12/18 02:31:39;;;;;;;25.03;10.10;;;;;;;;;;10439592;27;20253;-72
2020/12/18 02:36:41;;;;;;;27.03;9.50;;;;;;;;;;10437443;27;20687;-71
2020/12/18 02:41:43;;;;;;;33.87;10.20;;;;;;;;;;10435455;27;20247;-73
2020/12/18 02:46:46;;;;;;;24.37;9.50;;;;;;;;;;10439568;27;20271;-72
2020/12/18 02:51:48;;;;;;;31.83;10.03;;;;;;;;;;10432404;27;20212;-72
2020/12/18 02:56:51;;;;;;;26.97;9.50;;;;;;;;;;10432090;27;20219;-72
2020/12/18 03:01:53;;;;;;;24.90;9.73;;;;;;;;;;10435827;27;20597;-72
2020/12/18 03:06:55;;;;;;;25.80;9.27;;;;;;;;;;10438661;27;20234;-72
2020/12/18 03:11:58;;;;;;;28.27;9.00;;;;;;;;;;10434081;27;21015;-72
2020/12/18 03:16:59;;;;;;;25.03;8.80;;;;;;;;;;10432896;27;20216;-71
2020/12/18 03:22:01;;;;;;;19.37;8.47;;;;;;;;;;10433748;27;20215;-72
2020/12/18 03:27:04;;;;;;;32.90;9.60;;;;;;;;;;10445582;27;20242;-71
2020/12/18 03:32:06;;;;;;;34.13;9.70;;;;;;;;;;10442836;27;20228;-71
2020/12/18 03:37:08;;;;;;;23.90;8.53;;;;;;;;;;10434718;27;20204;-71
2020/12/18 03:42:10;;;;;;;26.73;8.93;;;;;;;;;;10425428;27;20243;-71
2020/12/18 03:47:12;;;;;;;27.17;9.03;;;;;;;;;;10443908;27;20244;-71
2020/12/18 03:52:14;;;;;;;24.70;7.90;;;;;;;;;;10427518;27;20203;-72
2020/12/18 03:57:17;;;;;;;25.03;8.70;;;;;;;;;;10439774;27;20219;-71
2020/12/18 04:02:19;;;;;;;25.40;8.93;;;;;;;;;;10436249;27;20235;-71
2020/12/18 04:07:21;;;;;;;30.87;9.10;;;;;;;;;;10434780;27;20235;-71
2020/12/18 04:12:23;;;;;;;31.30;8.77;;;;;;;;;;10427198;27;20269;-71
2020/12/18 04:17:25;;;;;;;28.17;8.63;;;;;;;;;;10440969;27;20210;-72
2020/12/18 04:22:29;;;;;;;26.70;10.07;;;;;;;;;;10425290;27;20220;-72
2020/12/18 04:27:32;;;;;;;28.40;8.67;;;;;;;;;;10433711;27;20607;-72
2020/12/18 04:32:33;;;;;;;28.53;8.93;;;;;;;;;;10436202;27;20214;-72
2020/12/18 04:37:35;;;;;;;22.00;8.27;;;;;;;;;;10437205;27;20211;-72
2020/12/18 04:42:38;;;;;;;26.50;9.30;;;;;;;;;;10441492;27;20239;-72
2020/12/18 04:47:41;;;;;;;28.93;8.57;;;;;;;;;;10435494;27;20246;-72
2020/12/18 04:52:45;;;;;;;18.37;7.87;;;;;;;;;;10439280;27;20237;-72
2020/12/18 04:57:48;;;;;;;22.47;7.77;;;;;;;;;;10440935;27;20679;-72
2020/12/18 05:02:50;;;;;;;26.60;8.37;;;;;;;;;;10446617;27;20241;-72
2020/12/18 05:07:52;;;;;;;24.07;8.10;;;;;;;;;;10444802;27;20242;-72
2020/12/18 05:12:55;;;;;;;17.90;8.10;;;;;;;;;;10434392;27;20230;-70
2020/12/18 05:17:57;;;;;;;25.53;8.13;;;;;;;;;;10445008;27;20688;-70
2020/12/18 05:22:58;;;;;;;19.20;7.50;;;;;;;;;;10436661;27;20211;-71
2020/12/18 05:28:03;;;;;;;18.17;8.13;;;;;;;;;;10439976;27;20274;-71
2020/12/18 05:33:06;;;;;;;19.83;7.97;;;;;;;;;;10439294;27;20600;-72
2020/12/18 05:38:08;;;;;;;21.20;7.10;;;;;;;;;;10447904;27;21862;-71
2020/12/18 05:43:14;;;;;;;18.80;6.60;;;;;;;;;;10434432;27;20600;-71
2020/12/18 05:48:16;;;;;;;21.40;6.40;;;;;;;;;;10444035;27;20313;-71
2020/12/18 05:53:18;;;;;;;22.87;6.33;;;;;;;;;;10440803;27;20223;-71
2020/12/18 05:58:25;;;;;;;16.53;5.67;;;;;;;;;;10438513;27;20218;-71
2020/12/18 06:03:34;;;;;;;29.13;6.70;;;;;;;;;;10447070;27;20243;-70
2020/12/18 06:08:36;;;;;;;16.70;5.67;;;;;;;;;;10440786;27;20215;-72
2020/12/18 06:13:40;;;;;;;19.00;6.00;;;;;;;;;;10447482;27;20212;-73
2020/12/18 06:18:43;;;;;;;17.33;5.43;;;;;;;;;;10443735;27;20214;-73
2020/12/18 06:23:45;;;;;;;12.10;5.17;;;;;;;;;;10438411;27;20235;-78
2020/12/18 06:28:48;;;;;;;20.37;5.47;;;;;;;;;;10437427;27;20283;-73
2020/12/18 06:33:50;;;;;;;22.57;6.33;;;;;;;;;;10436542;27;20981;-76
2020/12/18 06:38:52;;;;;;;23.57;6.03;;;;;;;;;;10446923;27;20247;-73
2020/12/18 06:43:54;;;;;;;24.50;6.40;;;;;;;;;;10442518;27;20237;-74
2020/12/18 06:48:56;;;;;;;20.23;5.73;;;;;;;;;;10440932;27;20215;-77
2020/12/18 06:54:07;;;;;;;18.73;5.90;;;;;;;;;;10440155;27;20879;-76
2020/12/18 06:59:18;;;;;;;23.37;6.40;;;;;;;;;;10438933;27;20222;-73
2020/12/18 07:04:21;;;;;;;17.47;6.07;;;;;;;;;;10435551;27;20249;-74
2020/12/18 07:09:24;;;;;;;20.53;6.63;;;;;;;;;;10434989;27;21173;-74
2020/12/18 07:14:27;;;;;;;18.67;7.83;;;;;;;;;;10438128;27;20214;-75
2020/12/18 07:19:29;;;;;;;22.20;8.40;;;;;;;;;;10436075;27;20215;-71
2020/12/18 07:24:31;;;;;;;18.13;8.20;;;;;;;;;;10436563;27;20736;-73
2020/12/18 07:29:33;;;;;;;25.13;9.17;;;;;;;;;;10429319;27;20218;-73
2020/12/18 07:34:35;;;;;;;27.07;9.80;;;;;;;;;;10436590;27;20220;-74
2020/12/18 07:39:37;;;;;;;23.87;10.00;;;;;;;;;;10442177;27;20238;-73
2020/12/18 07:44:39;;;;;;;26.60;10.27;;;;;;;;;;10436703;27;20642;-73
2020/12/18 07:49:41;;;;;;;25.43;10.50;;;;;;;;;;10434234;27;20669;-72
2020/12/18 07:54:43;;;;;;;28.07;11.33;;;;;;;;;;10440674;27;20215;-74
2020/12/18 07:59:45;;;;;;;26.03;10.67;;;;;;;;;;10437898;27;20211;-74
2020/12/18 08:04:56;;;;;;;32.67;11.57;;;;;;;;;;10456953;27;20243;-74
2020/12/18 08:09:58;;;;;;;24.03;11.90;;;;;;;;;;10428521;27;20212;-74
2020/12/18 08:15:07;;;;;;;27.57;12.40;;;;;;;;;;10443761;27;20208;-74
2020/12/18 08:20:13;;;;;;;24.93;12.10;;;;;;;;;;10432795;27;20210;-74
2020/12/18 08:25:16;;;;;;;32.23;12.47;;;;;;;;;;10432255;27;20265;-73
2020/12/18 08:30:19;;;;;;;27.73;12.30;;;;;;;;;;10435570;27;20211;-73
2020/12/18 08:35:22;;;;;;;28.00;13.10;;;;;;;;;;10439176;27;20929;-73
2020/12/18 08:40:24;;;;;;;26.70;13.43;;;;;;;;;;10435989;27;20712;-73
2020/12/18 08:45:27;;;;;;;36.17;13.67;;;;;;;;;;10436470;27;20231;-74
2020/12/18 08:50:29;;;;;;;25.73;12.43;;;;;;;;;;10434535;27;20214;-74
2020/12/18 08:55:30;;;;;;;27.83;13.17;;;;;;;;;;10438466;27;20210;-73
2020/12/18 09:00:33;;;;;;;30.40;13.00;;;;;;;;;;10430809;27;20215;-74
2020/12/18 09:05:36;;;;;;;27.23;12.20;;;;;;;;;;10433034;27;20239;-69
2020/12/18 09:10:39;;;;;;;26.33;10.97;;;;;;;;;;10435897;27;20572;-71
2020/12/18 09:15:42;;;;;;;26.60;11.20;;;;;;;;;;10435958;27;20207;-72
2020/12/18 09:20:44;;;;;;;26.50;10.80;;;;;;;;;;10431607;27;20215;-71
2020/12/18 09:25:48;;;;;;;26.13;11.13;;;;;;;;;;10422595;27;20238;-72
2020/12/18 09:30:52;;;;;;;22.33;10.20;;;;;;;;;;10430379;27;20512;-72
2020/12/18 09:35:55;;;;;;;19.93;9.83;;;;;;;;;;10423524;27;20223;-73
2020/12/18 10:02:06;;;;;;;18.53;8.10;;;;;;;;;;10350039;22;20266;-71
2020/12/18 10:07:08;;;;;;;15.43;7.10;;;;;;;;;;10433969;28;20239;-71
2020/12/18 10:12:09;;;;;;;17.70;7.70;;;;;;;;;;10435504;28;20208;-71
2020/12/18 10:17:12;;;;;;;16.80;7.73;;;;;;;;;;10438301;28;20982;-73
2020/12/18 10:22:14;;;;;;;17.73;7.27;;;;;;;;;;10439347;28;20746;-73
2020/12/18 10:27:16;;;;;;;19.10;7.50;;;;;;;;;;10431791;28;20270;-77
2020/12/18 10:32:19;;;;;;;22.10;7.00;;;;;;;;;;10444314;28;20215;-77
2020/12/18 10:37:22;;;;;;;23.03;8.63;;;;;;;;;;10439159;28;20222;-71
2020/12/18 10:42:23;;;;;;;16.93;7.60;;;;;;;;;;10435594;28;20226;-71
2020/12/18 10:47:26;;;;;;;24.30;7.20;;;;;;;;;;10429679;28;20235;-71
2020/12/18 10:52:28;;;;;;;16.87;7.00;;;;;;;;;;10435187;28;20215;-70
2020/12/18 10:57:30;;;;;;;18.50;7.10;;;;;;;;;;10437080;28;20204;-71
2020/12/18 11:02:35;;;;;;;24.77;6.80;;;;;;;;;;10163946;28;20239;-70
2020/12/18 11:07:37;;;;;;;16.37;6.13;;;;;;;;;;10425281;28;20243;-71
2020/12/18 11:12:39;;;;;;;21.87;7.07;;;;;;;;;;10430114;28;20212;-74
2020/12/18 11:17:41;;;;;;;14.33;5.90;;;;;;;;;;10427249;28;20222;-74
2020/12/18 11:22:43;;;;;;;16.87;6.13;;;;;;;;;;10422934;28;20594;-72
2020/12/18 11:27:45;;;;;;;16.90;5.60;;;;;;;;;;10420480;28;20234;-73
2020/12/18 12:37:36;;;;;;;17.57;4.50;;;;;;;;;;9858755;23;20243;-68
2020/12/18 12:42:38;;;;;;;16.30;5.10;;;;;;;;;;10440330;28;20714;-67
2020/12/18 12:47:40;;;;;;;11.60;4.27;;;;;;;;;;10436648;28;20235;-67
2020/12/18 12:52:43;;;;;;;11.63;3.80;;;;;;;;;;10439809;28;20744;-66
2020/12/18 12:57:45;;;;;;;8.27;3.43;;;;;;;;;;10456587;28;20214;-67
2020/12/18 13:02:47;;;;;;;11.40;3.47;;;;;;;;;;10439460;28;20685;-67
2020/12/18 13:07:53;;;;;;;10.27;3.73;;;;;;;;;;10440912;28;20250;-67
2020/12/18 13:12:55;;;;;;;13.60;3.37;;;;;;;;;;10440657;28;20212;-67
2020/12/18 13:17:57;;;;;;;12.33;3.43;;;;;;;;;;10446927;28;20253;-67
2020/12/18 13:22:59;;;;;;;13.67;3.73;;;;;;;;;;10458414;28;20203;-69
2020/12/18 13:28:01;;;;;;;17.03;4.13;;;;;;;;;;10464984;28;20255;-66
2020/12/18 13:33:03;;;;;;;8.87;3.43;;;;;;;;;;10469478;28;20246;-67
2020/12/18 13:38:07;;;;;;;15.13;3.17;;;;;;;;;;10430763;28;20238;-68
2020/12/18 13:43:09;;;;;;;7.87;3.20;;;;;;;;;;10424581;28;20724;-68
2020/12/18 13:48:11;;;;;;;10.77;3.10;;;;;;;;;;10429409;28;20248;-68
2020/12/18 13:53:14;;;;;;;9.93;3.10;;;;;;;;;;10423557;28;20212;-68
2020/12/18 13:58:16;;;;;;;8.30;2.70;;;;;;;;;;10424382;28;20390;-68
2020/12/18 14:03:18;;;;;;;7.03;2.80;;;;;;;;;;10431413;28;20278;-68
2020/12/18 14:08:20;;;;;;;11.40;3.00;;;;;;;;;;10422332;28;20266;-68
2020/12/18 14:13:22;;;;;;;10.57;3.43;;;;;;;;;;10429687;28;20419;-68
2020/12/18 14:18:24;;;;;;;7.60;2.93;;;;;;;;;;10430581;28;20207;-68
2020/12/18 14:23:27;;;;;;;14.97;3.53;;;;;;;;;;10435363;28;20204;-68
2020/12/18 14:28:29;;;;;;;12.33;2.83;;;;;;;;;;10437702;28;20242;-68
2020/12/18 14:33:31;;;;;;;11.53;3.47;;;;;;;;;;10430940;28;20215;-66
2020/12/18 14:38:34;;;;;;;9.67;3.03;;;;;;;;;;10426329;28;20591;-67
2020/12/18 14:43:40;;;;;;;11.23;3.10;;;;;;;;;;10426802;28;20208;-67
2020/12/18 14:48:42;;;;;;;9.23;3.00;;;;;;;;;;10435291;28;20610;-67
2020/12/18 14:53:44;;;;;;;10.97;3.00;;;;;;;;;;10435227;28;20219;-67
2020/12/18 14:58:46;;;;;;;16.40;2.90;;;;;;;;;;10432652;28;20228;-67
2020/12/18 15:03:48;;;;;;;10.90;2.60;;;;;;;;;;10433792;28;20693;-67
2020/12/18 15:08:52;;;;;;;7.17;3.10;;;;;;;;;;10426085;28;20320;-67
2020/12/18 15:13:54;;;;;;;15.30;2.80;;;;;;;;;;10425359;28;20275;-67
2020/12/18 15:18:56;;;;;;;11.23;2.53;;;;;;;;;;10421162;28;20222;-68
2020/12/18 15:23:59;;;;;;;7.43;2.50;;;;;;;;;;10421075;28;20214;-67
2020/12/18 15:29:01;;;;;;;7.93;2.53;;;;;;;;;;10425517;28;20240;-71
2020/12/18 15:34:03;;;;;;;9.13;2.67;;;;;;;;;;10420618;28;20238;-71
2020/12/18 15:39:05;;;;;;;7.37;2.33;;;;;;;;;;10409989;28;20240;-70
2020/12/18 15:44:07;;;;;;;6.63;2.70;;;;;;;;;;10421170;28;20659;-70
2020/12/18 15:49:09;;;;;;;6.57;2.13;;;;;;;;;;10425980;28;20239;-70
2020/12/18 15:54:12;;;;;;;9.00;2.30;;;;;;;;;;10419840;28;20276;-72
2020/12/18 15:59:14;;;;;;;5.87;2.13;;;;;;;;;;10392466;28;20518;-72
2020/12/18 16:04:16;;;;;;;8.77;2.83;;;;;;;;;;10409067;28;20212;-71
2020/12/18 16:09:19;;;;;;;10.30;3.17;;;;;;;;;;10399683;28;20891;-72
2020/12/18 16:14:21;;;;;;;9.50;2.43;;;;;;;;;;10400949;28;20212;-72
2020/12/18 16:19:23;;;;;;;6.70;2.40;;;;;;;;;;10408120;28;20212;-73
2020/12/18 16:24:25;;;;;;;8.33;2.67;;;;;;;;;;10405095;28;20223;-71
2020/12/18 16:29:27;;;;;;;11.53;2.70;;;;;;;;;;10404049;28;20709;-71
2020/12/18 16:34:29;;;;;;;4.43;2.20;;;;;;;;;;10400473;28;20242;-71
2020/12/18 16:39:32;;;;;;;7.13;2.50;;;;;;;;;;10401417;28;20231;-73
2020/12/18 16:44:34;;;;;;;8.37;2.43;;;;;;;;;;10404319;28;20215;-72
2020/12/18 16:49:36;;;;;;;8.57;2.50;;;;;;;;;;10407537;28;20589;-71
2020/12/18 16:54:39;;;;;;;6.43;2.40;;;;;;;;;;10410021;28;20246;-72
2020/12/18 16:59:40;;;;;;;6.83;2.57;;;;;;;;;;10407858;28;20214;-71
2020/12/18 17:04:42;;;;;;;9.47;2.50;;;;;;;;;;10412927;28;20221;-73
2020/12/18 17:09:46;;;;;;;5.20;2.23;;;;;;;;;;10409305;28;20676;-73
2020/12/18 17:14:48;;;;;;;7.83;3.00;;;;;;;;;;10415277;28;20222;-74
2020/12/18 17:19:52;;;;;;;5.43;2.50;;;;;;;;;;10411693;28;20211;-72
2020/12/18 17:24:55;;;;;;;8.37;2.97;;;;;;;;;;10409141;28;20262;-70
2020/12/18 17:29:57;;;;;;;6.40;3.00;;;;;;;;;;10413457;28;20476;-72
2020/12/18 17:34:59;;;;;;;8.33;3.47;;;;;;;;;;10409731;28;20300;-72
2020/12/18 17:40:02;;;;;;;8.10;2.90;;;;;;;;;;10417563;28;20238;-72
2020/12/18 17:45:04;;;;;;;9.37;3.43;;;;;;;;;;10408478;28;20243;-73
2020/12/18 17:50:06;;;;;;;10.17;3.63;;;;;;;;;;10406325;28;20777;-73
2020/12/18 17:55:09;;;;;;;10.60;3.57;;;;;;;;;;10411447;28;20216;-73
2020/12/18 18:00:11;;;;;;;10.27;3.60;;;;;;;;;;10411383;28;20627;-74
2020/12/18 18:05:12;;;;;;;9.07;3.60;;;;;;;;;;10407993;28;20796;-73
2020/12/18 18:10:15;;;;;;;9.30;3.50;;;;;;;;;;10410609;28;20226;-76
2020/12/18 18:15:17;;;;;;;10.03;3.80;;;;;;;;;;10420271;28;20718;-74
2020/12/18 18:20:19;;;;;;;7.50;3.57;;;;;;;;;;10412236;28;20640;-74
2020/12/18 18:25:22;;;;;;;16.50;3.97;;;;;;;;;;10395160;28;20242;-72
2020/12/18 18:30:24;;;;;;;10.00;3.67;;;;;;;;;;10414415;28;20211;-72
2020/12/18 18:35:25;;;;;;;8.77;3.70;;;;;;;;;;10409366;28;20231;-71
2020/12/18 18:40:28;;;;;;;8.57;3.93;;;;;;;;;;10400421;28;20235;-72
2020/12/18 18:45:37;;;;;;;8.57;3.33;;;;;;;;;;10408398;28;20710;-72
2020/12/18 18:50:38;;;;;;;9.83;3.40;;;;;;;;;;10406262;28;20399;-71
2020/12/18 18:55:41;;;;;;;7.73;3.83;;;;;;;;;;10408900;28;20211;-71
2020/12/18 19:00:43;;;;;;;8.67;3.53;;;;;;;;;;10404864;28;20544;-72
2020/12/18 19:05:44;;;;;;;8.47;3.97;;;;;;;;;;10407993;28;20243;-73
2020/12/18 19:10:47;;;;;;;6.83;3.83;;;;;;;;;;10405918;28;20222;-71
2020/12/18 19:15:49;;;;;;;10.07;4.10;;;;;;;;;;10408564;28;20215;-70
2020/12/18 19:20:51;;;;;;;16.13;4.37;;;;;;;;;;10402407;28;20681;-69
2020/12/18 19:25:55;;;;;;;8.07;3.97;;;;;;;;;;10405654;28;20240;-69
2020/12/18 19:30:57;;;;;;;9.17;5.27;;;;;;;;;;10408488;28;20274;-71
2020/12/18 19:35:59;;;;;;;13.53;5.07;;;;;;;;;;10406345;28;20614;-71
2020/12/18 19:41:03;;;;;;;11.17;4.90;;;;;;;;;;10412407;28;20235;-70
2020/12/18 19:46:05;;;;;;;11.03;5.00;;;;;;;;;;10403657;28;20235;-70
2020/12/18 19:51:06;;;;;;;15.33;5.80;;;;;;;;;;10403590;28;20215;-71
2020/12/18 19:56:09;;;;;;;12.13;4.70;;;;;;;;;;10401494;28;21458;-70
2020/12/18 20:01:16;;;;;;;9.73;4.50;;;;;;;;;;10400905;28;20219;-71
2020/12/18 20:06:18;;;;;;;8.67;4.40;;;;;;;;;;10404529;28;20247;-70
2020/12/18 20:11:21;;;;;;;13.03;4.83;;;;;;;;;;10403685;28;20220;-70
2020/12/18 20:16:23;;;;;;;9.40;5.03;;;;;;;;;;10407570;28;20691;-69
2020/12/18 20:21:26;;;;;;;19.43;5.27;;;;;;;;;;10406877;28;20737;-71
2020/12/18 20:26:28;;;;;;;10.57;5.20;;;;;;;;;;10410418;28;20254;-71
2020/12/18 20:31:30;;;;;;;9.30;5.10;;;;;;;;;;10407756;28;20713;-71
2020/12/18 20:36:33;;;;;;;11.87;5.37;;;;;;;;;;10404713;28;20235;-71
2020/12/18 20:41:36;;;;;;;10.50;5.47;;;;;;;;;;10406411;28;20269;-71
2020/12/18 20:46:37;;;;;;;13.50;5.87;;;;;;;;;;10405705;28;20239;-71
2020/12/18 20:51:39;;;;;;;10.43;6.43;;;;;;;;;;10400841;28;20215;-71
2020/12/18 20:56:42;;;;;;;11.77;5.77;;;;;;;;;;10415418;28;20216;-71
2020/12/18 21:01:44;;;;;;;13.13;6.00;;;;;;;;;;10403617;28;20597;-72
2020/12/18 21:06:46;;;;;;;10.23;6.20;;;;;;;;;;10400975;28;20238;-72
2020/12/18 21:11:48;;;;;;;11.40;5.73;;;;;;;;;;10403347;28;20216;-70
2020/12/18 21:16:52;;;;;;;9.57;6.20;;;;;;;;;;10402684;28;20227;-73
2020/12/18 21:21:54;;;;;;;13.00;6.00;;;;;;;;;;10405086;28;20682;-72
2020/12/18 21:26:56;;;;;;;14.70;6.93;;;;;;;;;;10404376;28;20246;-70
2020/12/18 21:31:58;;;;;;;11.70;6.50;;;;;;;;;;10402554;28;20208;-71
2020/12/18 21:37:00;;;;;;;12.20;6.97;;;;;;;;;;10400535;28;20231;-73
2020/12/18 21:42:04;;;;;;;11.83;7.10;;;;;;;;;;10403487;28;20214;-72
2020/12/18 21:47:06;;;;;;;12.33;7.33;;;;;;;;;;10411964;28;20250;-72
2020/12/18 21:52:08;;;;;;;15.07;7.23;;;;;;;;;;10410224;28;20211;-75
2020/12/18 21:57:11;;;;;;;14.20;7.47;;;;;;;;;;10407140;28;20212;-72
2020/12/18 22:02:12;;;;;;;14.13;7.53;;;;;;;;;;10410455;28;20212;-71
2020/12/18 22:07:16;;;;;;;18.33;8.20;;;;;;;;;;10410056;28;20246;-70
2020/12/18 22:12:19;;;;;;;14.63;7.77;;;;;;;;;;10413221;28;20223;-73
2020/12/18 22:17:21;;;;;;;15.23;8.37;;;;;;;;;;10409591;28;20761;-71
2020/12/18 22:22:23;;;;;;;15.10;8.10;;;;;;;;;;10408552;28;20674;-70
2020/12/18 22:27:25;;;;;;;16.73;8.20;;;;;;;;;;10404331;28;20730;-72
2020/12/18 22:32:27;;;;;;;18.33;9.93;;;;;;;;;;10410413;28;20302;-71
2020/12/18 22:37:29;;;;;;;17.47;9.23;;;;;;;;;;10408830;28;20718;-71
2020/12/18 22:42:32;;;;;;;14.13;8.80;;;;;;;;;;10411915;28;20208;-72
2020/12/18 22:47:34;;;;;;;15.73;9.77;;;;;;;;;;10409784;28;20240;-70
2020/12/18 22:52:36;;;;;;;19.37;10.20;;;;;;;;;;10408108;28;20819;-71
2020/12/18 22:57:39;;;;;;;19.87;10.40;;;;;;;;;;10406996;28;20211;-73
2020/12/18 23:02:41;;;;;;;19.90;11.07;;;;;;;;;;10407912;28;20207;-71
2020/12/18 23:07:43;;;;;;;19.70;10.47;;;;;;;;;;10403369;28;20239;-71
2020/12/18 23:12:46;;;;;;;21.27;11.17;;;;;;;;;;10410590;28;20211;-72
2020/12/18 23:17:48;;;;;;;18.50;11.23;;;;;;;;;;10408793;28;20216;-72
2020/12/18 23:22:50;;;;;;;22.93;11.90;;;;;;;;;;10404119;28;20220;-71
2020/12/18 23:27:53;;;;;;;22.37;11.57;;;;;;;;;;10409924;28;20243;-70
2020/12/18 23:32:55;;;;;;;26.13;11.53;;;;;;;;;;10410308;28;20208;-72
2020/12/18 23:37:57;;;;;;;21.07;12.10;;;;;;;;;;10416061;28;20231;-72
2020/12/18 23:43:00;;;;;;;21.30;12.30;;;;;;;;;;10416597;28;20702;-72
2020/12/18 23:48:02;;;;;;;23.80;12.10;;;;;;;;;;10414431;28;20243;-71
2020/12/18 23:53:04;;;;;;;20.47;12.27;;;;;;;;;;10409651;28;20685;-72
2020/12/18 23:58:07;;;;;;;18.57;11.80;;;;;;;;;;10416162;28;20243;-72
